Time;durP1;ratioP1;P1;durP2;ratioP2;P2;SDS_P1;SDS_P2;PMS_P1;PMS_P2;Temp;Humidity;BMP_temperature;BMP_pressure;BME280_temperature;BME280_humidity;BME280_pressure;Samples;Min_cycle;Max_cycle;Signal;HPM_P1;HPM_P2
2024/01/06 00:01:41;;;;;;;6.10;3.25;;;8.50;87.20;;;;;;5037009;28;20036;-63
2024/01/06 00:04:07;;;;;;;4.35;3.08;;;8.50;87.00;;;;;;5047287;28;20044;-63
2024/01/06 00:06:32;;;;;;;7.35;3.78;;;8.50;87.00;;;;;;5048418;28;20112;-63
2024/01/06 00:08:58;;;;;;;5.93;2.75;;;8.50;87.00;;;;;;5033190;28;20029;-63
2024/01/06 00:11:24;;;;;;;6.70;3.80;;;8.50;87.00;;;;;;5038378;28;20111;-63
2024/01/06 00:13:50;;;;;;;4.68;2.63;;;8.50;86.90;;;;;;5040128;28;20033;-63
2024/01/06 00:16:19;;;;;;;7.10;4.18;;;8.40;86.80;;;;;;5046324;28;20029;-63
2024/01/06 00:18:46;;;;;;;4.75;2.28;;;8.40;86.80;;;;;;5048956;28;20475;-63
2024/01/06 00:21:12;;;;;;;3.83;2.40;;;8.40;86.80;;;;;;5043547;28;20322;-63
2024/01/06 00:23:41;;;;;;;5.32;3.42;;;8.30;86.80;;;;;;5038207;28;20067;-63
2024/01/06 00:26:08;;;;;;;4.68;2.65;;;8.40;86.80;;;;;;5043303;28;20041;-63
2024/01/06 00:28:34;;;;;;;3.90;2.63;;;8.40;86.80;;;;;;5045691;28;20424;-63
2024/01/06 00:30:59;;;;;;;5.20;2.63;;;8.30;86.40;;;;;;5053817;28;20021;-63
2024/01/06 00:33:25;;;;;;;4.22;2.80;;;8.30;86.50;;;;;;5058561;28;20052;-66
2024/01/06 00:35:51;;;;;;;4.15;2.75;;;8.30;86.70;;;;;;5053893;28;20024;-66
2024/01/06 00:38:17;;;;;;;5.40;2.88;;;8.30;86.60;;;;;;5045137;28;20033;-65
2024/01/06 00:40:43;;;;;;;4.70;3.17;;;8.20;86.50;;;;;;5046761;28;20064;-65
2024/01/06 00:43:08;;;;;;;5.97;3.00;;;8.20;86.40;;;;;;5053759;28;20064;-62
2024/01/06 00:45:34;;;;;;;4.63;1.85;;;8.10;86.30;;;;;;5054249;28;20035;-62
2024/01/06 00:48:00;;;;;;;3.72;2.33;;;8.10;86.30;;;;;;5050003;28;20048;-62
2024/01/06 00:50:26;;;;;;;5.30;2.72;;;8.00;86.20;;;;;;5054185;28;20029;-62
2024/01/06 00:52:52;;;;;;;4.95;3.05;;;8.00;86.40;;;;;;5049521;28;20033;-62
2024/01/06 00:55:19;;;;;;;4.97;2.67;;;8.00;86.40;;;;;;5048126;28;20113;-62
2024/01/06 00:57:45;;;;;;;4.82;2.88;;;8.00;86.40;;;;;;5048737;28;20025;-62
2024/01/06 01:00:11;;;;;;;4.50;3.08;;;8.00;86.50;;;;;;5052382;28;20082;-62
2024/01/06 01:02:38;;;;;;;4.38;2.20;;;8.00;86.50;;;;;;5043518;28;20463;-62
2024/01/06 01:05:04;;;;;;;4.38;3.15;;;8.00;86.40;;;;;;5040060;28;20499;-62
2024/01/06 01:07:30;;;;;;;4.78;2.15;;;8.00;86.40;;;;;;5048187;28;20049;-65
2024/01/06 01:09:56;;;;;;;4.20;2.53;;;8.00;86.40;;;;;;5056526;28;20058;-65
2024/01/06 01:12:23;;;;;;;3.72;2.75;;;8.00;86.40;;;;;;5047980;28;20473;-65
2024/01/06 01:14:50;;;;;;;5.95;3.13;;;8.00;86.40;;;;;;5052417;28;20040;-66
2024/01/06 01:17:16;;;;;;;6.38;3.35;;;8.00;86.40;;;;;;5044991;28;20114;-65
2024/01/06 01:19:42;;;;;;;6.82;3.78;;;8.10;86.30;;;;;;5043108;28;20528;-65
2024/01/06 01:22:08;;;;;;;4.95;2.70;;;8.00;86.20;;;;;;5045997;28;20028;-65
2024/01/06 01:24:34;;;;;;;4.85;3.60;;;8.00;86.20;;;;;;5050579;28;20090;-65
2024/01/06 01:27:00;;;;;;;4.85;2.97;;;8.00;86.20;;;;;;5047293;28;20025;-65
2024/01/06 01:29:26;;;;;;;5.38;3.15;;;8.00;86.20;;;;;;5047130;28;20047;-65
2024/01/06 01:31:51;;;;;;;5.32;3.35;;;8.00;86.20;;;;;;5049596;28;20118;-65
2024/01/06 01:34:17;;;;;;;5.25;3.00;;;8.00;86.20;;;;;;5046264;28;20053;-66
2024/01/06 01:36:43;;;;;;;6.80;3.40;;;8.00;86.20;;;;;;5041868;28;20116;-65
2024/01/06 01:39:09;;;;;;;3.58;2.03;;;8.00;86.10;;;;;;5045086;28;20116;-65
2024/01/06 01:41:35;;;;;;;5.72;2.60;;;8.00;86.20;;;;;;5050615;28;20459;-62
2024/01/06 01:44:01;;;;;;;4.72;2.95;;;8.00;86.10;;;;;;5043092;28;20052;-62
2024/01/06 01:46:29;;;;;;;5.72;3.22;;;8.00;86.10;;;;;;5051527;28;20025;-62
2024/01/06 01:49:00;;;;;;;5.90;3.08;;;7.90;86.00;;;;;;5047512;28;20112;-62
2024/01/06 01:51:35;;;;;;;4.60;2.85;;;8.00;86.20;;;;;;5052301;28;20025;-62
2024/01/06 01:54:03;;;;;;;5.18;3.05;;;8.00;86.20;;;;;;5052044;28;20028;-62
2024/01/06 01:56:33;;;;;;;5.28;2.92;;;7.90;86.10;;;;;;5042591;28;20029;-62
2024/01/06 01:59:11;;;;;;;6.80;3.10;;;7.90;86.20;;;;;;5042806;28;20057;-62
2024/01/06 02:01:37;;;;;;;5.35;2.85;;;7.90;86.20;;;;;;5057742;28;20044;-62
2024/01/06 02:04:03;;;;;;;7.35;4.30;;;7.90;86.10;;;;;;5048744;28;20161;-62
2024/01/06 02:06:29;;;;;;;6.20;2.67;;;7.90;86.10;;;;;;5049483;28;20052;-65
2024/01/06 02:08:55;;;;;;;5.65;3.55;;;7.90;86.10;;;;;;5047512;28;20033;-65
2024/01/06 02:11:20;;;;;;;6.03;3.25;;;7.80;86.10;;;;;;5044273;28;20053;-65
2024/01/06 02:13:46;;;;;;;6.63;3.50;;;7.80;86.20;;;;;;5031845;28;20059;-65
2024/01/06 02:16:12;;;;;;;4.47;3.25;;;7.80;86.30;;;;;;5046740;28;20017;-65
2024/01/06 02:18:38;;;;;;;6.25;3.22;;;7.80;86.40;;;;;;5052430;28;20407;-62
2024/01/06 02:21:06;;;;;;;4.70;2.90;;;7.80;86.40;;;;;;5048895;28;20082;-62
2024/01/06 02:23:35;;;;;;;6.22;3.78;;;7.80;86.40;;;;;;5056291;28;20059;-62
2024/01/06 02:26:00;;;;;;;6.25;3.38;;;7.80;86.50;;;;;;5050732;28;20025;-62
2024/01/06 02:28:26;;;;;;;7.30;3.58;;;7.80;87.00;;;;;;5055362;28;20106;-65
2024/01/06 02:30:52;;;;;;;10.43;4.28;;;7.80;86.30;;;;;;5056878;28;20494;-65
2024/01/06 02:33:19;;;;;;;7.63;3.65;;;7.80;86.10;;;;;;5051290;28;20084;-65
2024/01/06 02:35:46;;;;;;;8.60;4.15;;;7.70;86.20;;;;;;5059214;28;20040;-63
2024/01/06 02:38:12;;;;;;;8.77;4.22;;;7.70;86.30;;;;;;5056311;28;20107;-65
2024/01/06 02:40:37;;;;;;;9.77;4.65;;;7.70;86.40;;;;;;5054267;28;20033;-65
2024/01/06 02:43:03;;;;;;;8.05;4.05;;;7.70;86.30;;;;;;5048968;28;20356;-65
2024/01/06 02:45:29;;;;;;;6.65;4.65;;;7.70;86.10;;;;;;5058780;28;20111;-66
2024/01/06 02:47:55;;;;;;;6.22;4.10;;;7.60;86.20;;;;;;5044588;28;20120;-65
2024/01/06 02:50:21;;;;;;;5.03;3.58;;;7.60;86.30;;;;;;5060289;28;20067;-65
2024/01/06 02:52:47;;;;;;;9.65;4.45;;;7.60;86.40;;;;;;5057715;28;20029;-65
2024/01/06 02:55:13;;;;;;;11.07;4.88;;;7.60;86.40;;;;;;5059670;28;20052;-65
2024/01/06 02:57:40;;;;;;;7.82;4.13;;;7.60;86.30;;;;;;5059018;28;20021;-65
2024/01/06 03:00:07;;;;;;;6.82;3.92;;;7.60;86.20;;;;;;5052675;28;20492;-65
2024/01/06 03:02:33;;;;;;;7.80;4.82;;;7.60;86.10;;;;;;5054671;28;20037;-66
2024/01/06 03:04:59;;;;;;;7.22;4.78;;;7.60;86.20;;;;;;5054602;28;20041;-65
2024/01/06 03:07:24;;;;;;;6.15;4.45;;;7.50;86.10;;;;;;5051458;28;20180;-65
2024/01/06 03:09:50;;;;;;;7.90;4.10;;;7.50;86.20;;;;;;5056407;28;20063;-66
2024/01/06 03:12:16;;;;;;;6.93;3.78;;;7.50;86.10;;;;;;5051610;28;20033;-66
2024/01/06 03:14:42;;;;;;;7.03;4.22;;;7.50;86.00;;;;;;5053214;28;20025;-66
2024/01/06 03:17:10;;;;;;;9.40;4.45;;;7.40;86.00;;;;;;5057886;28;20032;-66
2024/01/06 03:19:36;;;;;;;9.32;4.05;;;7.40;86.00;;;;;;5058107;28;20438;-65
2024/01/06 03:22:02;;;;;;;5.45;3.97;;;7.40;86.10;;;;;;5053248;28;20066;-66
2024/01/06 03:24:28;;;;;;;6.70;3.67;;;7.40;86.20;;;;;;5057595;28;20036;-66
2024/01/06 03:26:54;;;;;;;7.03;4.18;;;7.40;86.20;;;;;;5038240;28;20032;-66
2024/01/06 03:29:20;;;;;;;5.93;3.55;;;7.50;86.20;;;;;;5057220;28;20506;-66
2024/01/06 03:31:46;;;;;;;6.22;3.40;;;7.40;86.10;;;;;;5054304;28;20140;-66
2024/01/06 03:34:13;;;;;;;10.65;4.30;;;7.40;86.10;;;;;;5056388;28;20495;-66
2024/01/06 03:36:39;;;;;;;8.85;4.38;;;7.40;86.10;;;;;;5053269;28;20112;-66
2024/01/06 03:39:05;;;;;;;8.27;3.50;;;7.40;86.20;;;;;;5051224;28;20503;-66
2024/01/06 03:41:31;;;;;;;6.43;3.55;;;7.40;86.20;;;;;;5046895;28;20029;-66
2024/01/06 03:43:57;;;;;;;4.05;3.38;;;7.40;86.10;;;;;;5057369;28;20028;-66
2024/01/06 03:46:23;;;;;;;4.70;3.35;;;7.40;86.10;;;;;;5052612;28;20040;-66
2024/01/06 03:48:49;;;;;;;6.72;3.53;;;7.40;86.00;;;;;;5056987;28;20041;-66
2024/01/06 03:51:15;;;;;;;5.55;3.90;;;7.40;86.20;;;;;;5051221;28;20486;-66
2024/01/06 03:53:41;;;;;;;5.72;3.45;;;7.40;86.00;;;;;;5050886;28;20142;-66
2024/01/06 03:56:07;;;;;;;9.15;3.65;;;7.40;86.00;;;;;;5050439;28;20029;-63
2024/01/06 03:58:33;;;;;;;4.80;3.35;;;7.30;86.00;;;;;;5048461;28;20033;-63
2024/01/06 04:00:59;;;;;;;4.78;2.85;;;7.30;86.10;;;;;;5058217;28;20522;-63
2024/01/06 04:03:25;;;;;;;6.85;4.55;;;7.40;86.10;;;;;;5038501;28;20592;-63
2024/01/06 04:05:51;;;;;;;6.18;4.38;;;7.40;86.10;;;;;;5050187;28;20494;-63
2024/01/06 04:08:17;;;;;;;7.65;3.85;;;7.40;86.00;;;;;;5052226;28;20115;-66
2024/01/06 04:10:43;;;;;;;7.68;4.10;;;7.40;86.00;;;;;;5053557;28;20128;-66
2024/01/06 04:13:10;;;;;;;5.35;3.33;;;7.50;86.00;;;;;;5054164;28;20547;-66
2024/01/06 04:15:36;;;;;;;7.70;4.10;;;7.50;86.00;;;;;;5061742;28;20020;-66
2024/01/06 04:18:03;;;;;;;10.02;5.30;;;7.50;85.90;;;;;;5058078;28;20029;-66
2024/01/06 04:20:29;;;;;;;7.93;4.45;;;7.50;85.80;;;;;;5064874;28;20445;-66
2024/01/06 04:22:55;;;;;;;7.95;2.85;;;7.50;85.70;;;;;;5054144;28;20369;-66
2024/01/06 04:25:21;;;;;;;7.18;4.20;;;7.50;85.80;;;;;;5057821;28;20031;-66
2024/01/06 04:27:48;;;;;;;6.00;4.05;;;7.40;85.60;;;;;;5056838;28;20033;-66
2024/01/06 04:30:14;;;;;;;9.55;4.53;;;7.30;85.70;;;;;;5057391;28;20043;-66
2024/01/06 04:32:41;;;;;;;8.65;4.75;;;7.30;85.80;;;;;;5049298;28;20029;-66
2024/01/06 04:35:07;;;;;;;8.80;4.85;;;7.30;85.80;;;;;;5051333;28;20093;-66
2024/01/06 04:37:33;;;;;;;8.05;4.40;;;7.20;85.70;;;;;;5049828;28;20036;-63
2024/01/06 04:39:59;;;;;;;9.45;5.57;;;7.10;85.80;;;;;;5057434;28;20032;-63
2024/01/06 04:42:25;;;;;;;6.47;4.00;;;7.10;85.80;;;;;;5058880;28;20028;-65
2024/01/06 04:44:51;;;;;;;8.98;4.97;;;7.10;85.90;;;;;;5055811;28;20033;-63
2024/01/06 04:47:17;;;;;;;7.70;4.97;;;7.10;85.90;;;;;;5049158;28;20024;-62
2024/01/06 04:49:44;;;;;;;11.60;4.82;;;7.10;85.80;;;;;;5057440;28;20112;-63
2024/01/06 04:52:10;;;;;;;9.88;4.30;;;7.00;85.80;;;;;;5052419;28;20445;-66
2024/01/06 04:54:36;;;;;;;6.32;4.38;;;7.00;86.00;;;;;;5057016;28;20028;-66
2024/01/06 04:57:02;;;;;;;7.65;3.65;;;7.00;86.10;;;;;;5050333;28;20021;-66
2024/01/06 04:59:28;;;;;;;9.55;4.30;;;7.00;86.10;;;;;;5051621;28;20025;-65
2024/01/06 05:01:54;;;;;;;7.18;4.40;;;7.00;86.00;;;;;;5052008;28;20385;-66
2024/01/06 05:04:20;;;;;;;5.72;3.50;;;6.90;85.90;;;;;;5050795;28;20051;-66
2024/01/06 05:06:46;;;;;;;8.80;5.30;;;6.90;86.20;;;;;;5048443;28;20044;-63
2024/01/06 05:09:11;;;;;;;7.47;4.07;;;6.90;86.20;;;;;;5056094;28;20035;-63
2024/01/06 05:11:37;;;;;;;7.07;4.07;;;6.90;86.20;;;;;;5050983;28;20106;-62
2024/01/06 05:14:03;;;;;;;7.40;3.85;;;7.00;86.10;;;;;;5051820;28;20029;-63
2024/01/06 05:16:29;;;;;;;8.40;3.90;;;7.00;86.00;;;;;;5053493;28;20025;-63
2024/01/06 05:18:54;;;;;;;8.63;3.80;;;7.00;85.90;;;;;;5050257;28;20037;-63
2024/01/06 05:21:20;;;;;;;6.93;4.30;;;7.00;85.90;;;;;;5048591;28;20043;-63
2024/01/06 05:23:46;;;;;;;7.20;4.43;;;7.00;85.90;;;;;;5050671;28;20021;-63
2024/01/06 05:26:13;;;;;;;8.32;4.43;;;7.00;85.80;;;;;;5052539;28;20392;-63
2024/01/06 05:28:40;;;;;;;5.13;3.47;;;7.00;85.80;;;;;;5052806;28;20028;-63
2024/01/06 05:31:06;;;;;;;7.68;4.13;;;6.90;85.80;;;;;;5049434;28;20041;-62
2024/01/06 05:33:32;;;;;;;8.40;4.20;;;6.90;85.80;;;;;;5038390;28;20053;-63
2024/01/06 05:35:57;;;;;;;6.28;3.47;;;6.90;85.90;;;;;;5053912;28;20025;-63
2024/01/06 05:38:23;;;;;;;5.82;3.75;;;6.90;85.90;;;;;;5050177;28;20461;-63
2024/01/06 05:40:49;;;;;;;10.23;4.25;;;6.90;85.90;;;;;;5047134;28;20029;-63
2024/01/06 05:43:15;;;;;;;6.90;4.03;;;6.90;85.80;;;;;;5053934;28;20103;-63
2024/01/06 05:45:43;;;;;;;8.15;3.60;;;6.90;85.70;;;;;;5054306;28;20491;-64
2024/01/06 05:48:10;;;;;;;5.88;4.38;;;6.90;85.70;;;;;;5048060;28;20056;-63
2024/01/06 05:50:36;;;;;;;6.53;3.72;;;6.90;85.70;;;;;;5047382;28;20033;-63
2024/01/06 05:53:02;;;;;;;6.28;4.05;;;6.80;85.70;;;;;;5052784;28;20028;-63
2024/01/06 05:55:29;;;;;;;7.03;3.65;;;6.80;85.90;;;;;;5055382;28;20480;-63
2024/01/06 05:57:54;;;;;;;4.80;2.97;;;6.90;86.00;;;;;;5046973;28;20029;-63
2024/01/06 06:00:20;;;;;;;6.57;3.83;;;6.90;85.90;;;;;;5046930;28;20039;-64
2024/01/06 06:02:46;;;;;;;7.72;3.95;;;6.90;85.80;;;;;;5034255;28;20064;-63
2024/01/06 06:05:13;;;;;;;6.75;3.78;;;6.90;85.60;;;;;;5045611;28;20031;-63
2024/01/06 06:07:39;;;;;;;7.55;4.38;;;6.90;85.70;;;;;;5056661;28;20029;-63
2024/01/06 06:10:07;;;;;;;7.50;4.28;;;6.90;85.60;;;;;;5055235;28;20056;-63
2024/01/06 06:12:33;;;;;;;5.07;3.15;;;6.90;85.60;;;;;;5061216;28;20565;-63
2024/01/06 06:14:58;;;;;;;5.05;3.35;;;6.90;85.60;;;;;;5052586;28;20029;-63
2024/01/06 06:17:25;;;;;;;7.18;4.35;;;6.90;85.60;;;;;;5060429;28;20029;-67
2024/01/06 06:19:51;;;;;;;5.00;3.22;;;6.90;85.60;;;;;;5061188;28;20029;-67
2024/01/06 06:22:16;;;;;;;4.57;2.63;;;6.90;85.70;;;;;;5051095;28;20055;-67
2024/01/06 06:24:42;;;;;;;5.30;2.92;;;6.90;85.60;;;;;;5056449;28;20078;-63
2024/01/06 06:27:08;;;;;;;5.53;3.28;;;6.90;85.50;;;;;;5053355;28;20032;-63
2024/01/06 06:29:34;;;;;;;4.28;3.10;;;6.90;85.30;;;;;;5059006;28;20039;-63
2024/01/06 06:32:00;;;;;;;5.20;3.22;;;6.80;85.30;;;;;;5056071;28;20029;-63
2024/01/06 06:34:25;;;;;;;5.70;3.70;;;6.80;85.30;;;;;;5052715;28;20061;-67
2024/01/06 06:36:51;;;;;;;5.20;2.85;;;6.80;85.40;;;;;;5041546;28;20055;-67
2024/01/06 06:39:18;;;;;;;7.00;3.50;;;6.80;85.30;;;;;;5053298;28;20032;-63
2024/01/06 06:41:44;;;;;;;9.07;4.28;;;6.80;85.40;;;;;;5052207;28;20060;-63
2024/01/06 06:44:10;;;;;;;5.70;3.45;;;6.70;85.10;;;;;;5052198;28;20112;-67
2024/01/06 06:46:36;;;;;;;5.80;3.13;;;6.70;85.10;;;;;;5056464;28;20491;-67
2024/01/06 06:49:02;;;;;;;4.63;3.25;;;6.70;85.10;;;;;;5052828;28;20040;-67
2024/01/06 06:51:30;;;;;;;6.38;3.78;;;6.60;85.10;;;;;;5051059;28;20707;-63
2024/01/06 06:53:56;;;;;;;4.50;2.92;;;6.60;85.20;;;;;;5053014;28;20523;-63
2024/01/06 06:56:22;;;;;;;6.28;3.15;;;6.60;85.10;;;;;;5052438;28;20033;-63
2024/01/06 06:58:48;;;;;;;4.78;3.05;;;6.70;85.00;;;;;;5038938;28;20036;-63
2024/01/06 07:01:16;;;;;;;3.72;2.40;;;6.70;85.00;;;;;;5052671;28;20040;-63
2024/01/06 07:03:42;;;;;;;6.22;3.15;;;6.70;85.00;;;;;;5052939;28;20060;-63
2024/01/06 07:06:08;;;;;;;4.65;2.80;;;6.70;85.00;;;;;;5053176;28;20103;-64
2024/01/06 07:08:34;;;;;;;3.65;2.50;;;6.70;84.90;;;;;;5053310;28;20044;-67
2024/01/06 07:11:00;;;;;;;4.55;2.60;;;6.60;84.50;;;;;;5049672;28;20057;-67
2024/01/06 07:13:26;;;;;;;4.57;2.50;;;6.60;84.70;;;;;;5050382;28;20036;-67
2024/01/06 07:15:52;;;;;;;6.43;2.92;;;6.60;84.60;;;;;;5051198;28;20028;-67
2024/01/06 07:18:19;;;;;;;6.10;3.25;;;6.60;84.70;;;;;;5050458;28;20029;-67
2024/01/06 07:20:44;;;;;;;5.95;3.53;;;6.50;84.40;;;;;;5052017;28;20111;-68
2024/01/06 07:23:10;;;;;;;6.78;3.00;;;6.50;84.60;;;;;;5051428;28;20075;-67
2024/01/06 07:25:36;;;;;;;4.93;3.05;;;6.40;84.50;;;;;;5053072;28;20116;-67
2024/01/06 07:28:02;;;;;;;4.82;3.10;;;6.50;84.70;;;;;;5050916;28;20507;-67
2024/01/06 07:30:27;;;;;;;3.00;2.72;;;6.50;84.70;;;;;;5057176;28;20028;-63
2024/01/06 07:32:53;;;;;;;5.80;3.22;;;6.50;84.70;;;;;;5054903;28;20059;-63
2024/01/06 07:35:19;;;;;;;6.45;3.55;;;6.50;84.50;;;;;;5051194;28;20439;-63
2024/01/06 07:37:44;;;;;;;3.92;2.35;;;6.50;84.50;;;;;;5053906;28;20036;-63
2024/01/06 07:40:12;;;;;;;4.43;2.65;;;6.50;84.30;;;;;;5056147;28;20511;-63
2024/01/06 07:42:38;;;;;;;4.18;3.00;;;6.50;84.20;;;;;;5048259;28;20029;-63
2024/01/06 07:45:04;;;;;;;5.05;2.72;;;6.50;84.20;;;;;;5057459;28;20022;-63
2024/01/06 07:47:30;;;;;;;6.40;3.47;;;6.50;84.30;;;;;;5049041;28;20033;-63
2024/01/06 07:49:57;;;;;;;4.13;3.13;;;6.50;84.20;;;;;;5050721;28;20036;-63
2024/01/06 07:52:22;;;;;;;5.50;2.78;;;6.40;84.10;;;;;;5055902;28;20411;-67
2024/01/06 07:54:48;;;;;;;5.10;3.20;;;6.40;84.20;;;;;;5061351;28;20025;-67
2024/01/06 07:57:14;;;;;;;4.88;3.30;;;6.40;84.20;;;;;;5052662;28;20040;-68
2024/01/06 07:59:40;;;;;;;5.90;3.33;;;6.40;84.30;;;;;;5057674;28;20107;-67
2024/01/06 08:02:06;;;;;;;8.10;3.42;;;6.40;84.10;;;;;;5052420;28;20163;-63
2024/01/06 08:04:31;;;;;;;5.10;3.03;;;6.30;83.90;;;;;;5046306;28;20060;-63
2024/01/06 08:06:57;;;;;;;8.77;3.75;;;6.30;83.80;;;;;;5052813;28;20033;-63
2024/01/06 08:09:25;;;;;;;5.38;3.00;;;6.20;84.00;;;;;;5052800;28;20032;-67
2024/01/06 08:11:51;;;;;;;5.65;3.80;;;6.20;84.10;;;;;;5037148;28;20443;-67
2024/01/06 08:14:17;;;;;;;5.22;2.88;;;6.30;84.20;;;;;;5059768;28;20052;-67
2024/01/06 08:16:43;;;;;;;6.10;4.05;;;6.30;84.20;;;;;;5044784;28;20024;-67
2024/01/06 08:19:10;;;;;;;7.80;3.85;;;6.30;84.10;;;;;;5052384;28;20024;-67
2024/01/06 08:21:35;;;;;;;6.32;3.47;;;6.30;84.00;;;;;;5041370;28;20470;-67
2024/01/06 08:24:02;;;;;;;5.22;3.65;;;6.30;84.00;;;;;;5046694;28;20033;-67
2024/01/06 08:26:27;;;;;;;5.03;3.15;;;6.30;84.00;;;;;;5041096;28;20035;-67
2024/01/06 08:28:53;;;;;;;8.93;3.72;;;6.30;84.00;;;;;;5049510;28;20025;-67
2024/01/06 08:31:19;;;;;;;7.35;3.67;;;6.30;84.10;;;;;;5051922;28;20033;-67
2024/01/06 08:33:45;;;;;;;8.80;4.13;;;6.20;83.90;;;;;;5056144;28;20041;-67
2024/01/06 08:36:11;;;;;;;6.65;4.25;;;6.20;84.00;;;;;;5047996;28;20148;-67
2024/01/06 08:38:36;;;;;;;5.65;3.55;;;6.20;84.00;;;;;;5052804;28;20515;-67
2024/01/06 08:41:02;;;;;;;6.20;3.65;;;6.20;84.00;;;;;;5047568;28;20025;-67
2024/01/06 08:43:28;;;;;;;8.68;4.03;;;6.20;83.90;;;;;;5048870;28;20119;-67
2024/01/06 08:45:54;;;;;;;5.78;3.28;;;6.10;83.80;;;;;;5050157;28;20116;-67
2024/01/06 08:48:19;;;;;;;10.88;4.32;;;6.10;83.90;;;;;;5049560;28;20120;-67
2024/01/06 08:50:46;;;;;;;5.38;3.35;;;6.10;83.90;;;;;;5046562;28;20124;-66
2024/01/06 08:53:12;;;;;;;8.00;3.75;;;6.10;84.00;;;;;;5051367;28;20049;-68
2024/01/06 08:55:37;;;;;;;5.82;3.40;;;6.10;84.10;;;;;;5049401;28;20067;-67
2024/01/06 08:58:03;;;;;;;6.15;3.63;;;6.10;84.10;;;;;;5049462;28;20407;-65
2024/01/06 09:00:29;;;;;;;5.50;3.42;;;6.20;84.20;;;;;;5048186;28;20442;-69
2024/01/06 09:02:55;;;;;;;6.80;3.97;;;6.20;84.20;;;;;;5040045;28;20029;-65
2024/01/06 09:05:20;;;;;;;4.63;3.90;;;6.20;84.20;;;;;;5048954;28;20037;-65
2024/01/06 09:07:49;;;;;;;9.70;4.25;;;6.20;84.10;;;;;;5044770;28;20512;-64
2024/01/06 09:10:16;;;;;;;8.15;4.50;;;6.20;84.00;;;;;;5049682;28;20041;-66
2024/01/06 09:12:42;;;;;;;5.90;3.28;;;6.20;84.20;;;;;;5048255;28;20426;-66
2024/01/06 09:15:08;;;;;;;7.25;4.30;;;6.20;84.20;;;;;;5049294;28;20033;-65
2024/01/06 09:17:34;;;;;;;6.18;3.95;;;6.30;84.20;;;;;;5044287;28;20043;-68
2024/01/06 09:20:01;;;;;;;7.47;4.13;;;6.30;84.00;;;;;;5045596;28;20060;-69
2024/01/06 09:22:27;;;;;;;6.45;3.95;;;6.20;84.00;;;;;;5046131;28;20380;-68
2024/01/06 09:24:53;;;;;;;10.32;4.50;;;6.20;84.10;;;;;;5043563;28;20083;-67
2024/01/06 09:27:19;;;;;;;6.68;4.07;;;6.20;84.20;;;;;;5043297;28;20032;-66
2024/01/06 09:29:45;;;;;;;8.30;4.03;;;6.30;84.30;;;;;;5041605;28;20032;-65
2024/01/06 09:32:11;;;;;;;6.40;2.58;;;6.30;84.20;;;;;;5049322;28;20037;-64
2024/01/06 09:34:37;;;;;;;5.75;4.07;;;6.30;84.20;;;;;;5050360;28;20435;-68
2024/01/06 09:37:03;;;;;;;7.53;3.45;;;6.30;84.10;;;;;;5049592;28;20475;-66
2024/01/06 09:39:31;;;;;;;5.25;3.53;;;6.40;84.10;;;;;;5044922;28;20091;-67
2024/01/06 09:41:57;;;;;;;6.10;3.92;;;6.40;84.00;;;;;;5046768;28;20491;-67
2024/01/06 09:44:23;;;;;;;9.18;3.97;;;6.40;84.00;;;;;;5055239;28;20024;-65
2024/01/06 09:46:50;;;;;;;8.60;4.35;;;6.40;84.00;;;;;;5047648;28;20040;-64
2024/01/06 09:49:22;;;;;;;6.47;3.88;;;6.30;83.90;;;;;;5048242;28;20384;-66
2024/01/06 09:51:52;;;;;;;4.90;3.85;;;6.30;84.00;;;;;;5047298;28;20542;-66
2024/01/06 09:54:26;;;;;;;5.53;3.90;;;6.30;84.10;;;;;;5047399;28;20029;-66
2024/01/06 09:56:51;;;;;;;9.90;3.97;;;6.30;84.00;;;;;;5043824;28;20531;-66
2024/01/06 09:59:19;;;;;;;10.55;4.80;;;6.30;84.00;;;;;;5054886;28;20027;-66
2024/01/06 10:01:45;;;;;;;6.40;4.28;;;6.30;83.90;;;;;;5057616;28;20136;-66
2024/01/06 10:04:11;;;;;;;8.40;4.35;;;6.20;83.90;;;;;;5045869;28;20112;-63
2024/01/06 10:06:37;;;;;;;11.45;5.10;;;6.20;83.90;;;;;;5046611;28;20029;-63
2024/01/06 10:09:04;;;;;;;6.93;3.40;;;6.20;83.70;;;;;;5044216;28;20680;-61
2024/01/06 10:11:30;;;;;;;10.00;4.50;;;6.10;83.90;;;;;;5039346;28;20507;-62
2024/01/06 10:13:56;;;;;;;6.32;4.18;;;6.10;83.80;;;;;;5044057;28;20024;-63
2024/01/06 10:16:22;;;;;;;10.00;4.60;;;6.10;83.90;;;;;;5040783;28;20043;-62
2024/01/06 10:18:48;;;;;;;12.95;4.38;;;6.00;83.80;;;;;;5045468;28;20536;-63
2024/01/06 10:21:17;;;;;;;11.85;5.45;;;6.00;83.90;;;;;;5046718;28;20032;-67
2024/01/06 10:23:45;;;;;;;10.18;5.63;;;6.00;83.90;;;;;;5044201;28;20037;-62
2024/01/06 10:26:13;;;;;;;6.35;4.18;;;6.00;84.00;;;;;;5045036;28;20098;-61
2024/01/06 10:28:38;;;;;;;6.90;4.47;;;6.00;83.90;;;;;;5047152;28;20045;-58
2024/01/06 10:31:04;;;;;;;5.45;3.47;;;6.10;83.90;;;;;;5042194;28;20048;-63
2024/01/06 10:33:33;;;;;;;7.60;4.22;;;6.00;83.80;;;;;;5043529;28;20053;-63
2024/01/06 10:36:00;;;;;;;6.57;4.25;;;6.00;83.90;;;;;;5029306;28;20029;-63
2024/01/06 10:38:26;;;;;;;7.63;4.20;;;6.00;83.90;;;;;;5047382;28;20028;-63
2024/01/06 10:41:06;;;;;;;8.63;4.85;;;6.00;84.00;;;;;;5044964;28;20036;-63
2024/01/06 10:43:36;;;;;;;6.47;4.07;;;6.00;84.00;;;;;;5037090;28;20025;-62
2024/01/06 10:46:05;;;;;;;8.20;4.65;;;6.00;84.10;;;;;;5044327;28;20459;-68
2024/01/06 10:48:33;;;;;;;9.02;4.93;;;6.00;84.00;;;;;;5041857;28;20035;-68
2024/01/06 10:50:59;;;;;;;8.48;3.92;;;6.00;83.90;;;;;;5056613;28;20021;-68
2024/01/06 10:53:27;;;;;;;8.45;3.38;;;6.10;84.00;;;;;;5054177;28;20052;-70
2024/01/06 10:55:53;;;;;;;7.00;3.53;;;6.10;83.90;;;;;;5049275;28;20116;-68
2024/01/06 10:58:19;;;;;;;8.10;4.13;;;6.10;83.90;;;;;;5049026;28;20025;-68
2024/01/06 11:00:46;;;;;;;6.78;3.67;;;6.10;83.80;;;;;;5034461;28;20502;-65
2024/01/06 11:03:14;;;;;;;6.70;3.58;;;6.10;83.80;;;;;;5040653;28;20096;-68
2024/01/06 11:05:42;;;;;;;7.63;3.97;;;6.10;83.90;;;;;;5048711;28;20033;-67
2024/01/06 11:08:08;;;;;;;5.55;3.40;;;6.10;83.80;;;;;;5045060;28;20033;-68
2024/01/06 11:10:36;;;;;;;6.78;2.88;;;6.10;83.70;;;;;;5053067;28;20462;-68
2024/01/06 11:13:22;;;;;;;4.82;3.20;;;6.10;83.80;;;;;;5036570;28;20017;-68
2024/01/06 11:15:51;;;;;;;6.57;3.28;;;6.20;83.70;;;;;;5041858;28;21385;-66
2024/01/06 11:18:33;;;;;;;5.03;3.28;;;6.10;83.80;;;;;;5043272;28;20033;-64
2024/01/06 11:21:14;;;;;;;5.55;3.13;;;6.20;83.70;;;;;;5038938;28;20029;-64
2024/01/06 11:23:40;;;;;;;4.95;2.92;;;6.20;83.70;;;;;;5040239;28;20036;-63
2024/01/06 11:26:07;;;;;;;6.32;3.30;;;6.20;83.70;;;;;;5049487;28;20483;-65
2024/01/06 11:28:47;;;;;;;6.05;2.92;;;6.20;83.60;;;;;;5053631;28;20036;-64
2024/01/06 11:31:13;;;;;;;5.80;3.05;;;6.20;83.60;;;;;;5043589;28;20059;-64
2024/01/06 11:33:43;;;;;;;6.45;3.30;;;6.20;83.70;;;;;;5046030;28;20116;-65
2024/01/06 11:36:13;;;;;;;7.80;4.05;;;6.30;83.70;;;;;;5045056;28;20033;-65
2024/01/06 11:38:40;;;;;;;7.68;4.18;;;6.30;83.60;;;;;;5050505;28;20889;-65
2024/01/06 11:41:12;;;;;;;6.57;3.65;;;6.30;83.50;;;;;;5050008;28;20112;-65
2024/01/06 11:43:41;;;;;;;7.78;3.22;;;6.20;83.30;;;;;;5041491;28;20551;-64
2024/01/06 11:46:08;;;;;;;8.43;3.67;;;6.20;83.30;;;;;;5040139;28;20483;-65
2024/01/06 11:48:36;;;;;;;4.70;3.85;;;6.20;83.40;;;;;;5043782;28;20036;-64
2024/01/06 11:51:02;;;;;;;5.80;3.67;;;6.20;83.40;;;;;;5040843;28;20033;-64
2024/01/06 11:53:28;;;;;;;7.80;2.60;;;6.20;83.50;;;;;;5043404;28;20365;-64
2024/01/06 11:55:54;;;;;;;6.05;3.58;;;6.20;83.50;;;;;;5044865;28;20142;-64
2024/01/06 11:58:20;;;;;;;5.20;3.78;;;6.20;83.60;;;;;;5049572;28;20021;-65
2024/01/06 12:00:55;;;;;;;8.43;3.88;;;6.20;83.50;;;;;;5046581;28;20542;-64
2024/01/06 12:03:21;;;;;;;4.88;3.55;;;6.20;83.40;;;;;;5040779;28;20907;-64
2024/01/06 12:06:00;;;;;;;3.85;3.03;;;6.20;83.50;;;;;;5050242;28;20025;-64
2024/01/06 12:08:27;;;;;;;6.18;3.85;;;6.20;83.20;;;;;;5042438;28;20375;-64
2024/01/06 12:11:02;;;;;;;5.63;3.25;;;6.10;83.20;;;;;;5038692;28;20567;-64
2024/01/06 12:13:28;;;;;;;6.70;3.58;;;6.10;83.10;;;;;;5039169;28;20107;-64
2024/01/06 12:15:55;;;;;;;4.40;2.83;;;6.10;83.10;;;;;;5046396;28;20100;-64
2024/01/06 12:18:21;;;;;;;5.70;3.58;;;6.00;83.00;;;;;;5038124;28;20029;-67
2024/01/06 12:20:46;;;;;;;5.97;4.00;;;6.00;83.10;;;;;;5047945;28;20045;-67
2024/01/06 12:23:12;;;;;;;4.80;3.28;;;6.00;83.20;;;;;;5040932;28;20447;-67
2024/01/06 12:25:39;;;;;;;7.63;4.93;;;6.00;83.20;;;;;;5046687;28;20083;-67
2024/01/06 12:28:05;;;;;;;6.57;3.25;;;6.00;83.20;;;;;;5046189;28;20025;-67
2024/01/06 12:30:34;;;;;;;4.03;2.45;;;6.00;83.20;;;;;;5044854;28;20068;-67
2024/01/06 12:33:01;;;;;;;5.25;3.83;;;6.10;83.20;;;;;;5043967;28;20072;-67
2024/01/06 12:35:26;;;;;;;4.05;3.20;;;6.00;83.10;;;;;;5046941;28;20510;-67
2024/01/06 12:37:52;;;;;;;3.70;2.47;;;6.10;83.20;;;;;;5041374;28;20057;-67
2024/01/06 12:40:21;;;;;;;5.10;3.70;;;6.10;83.10;;;;;;5043963;28;20033;-67
2024/01/06 12:42:47;;;;;;;5.95;3.30;;;6.00;82.90;;;;;;5045500;28;20369;-67
2024/01/06 12:45:12;;;;;;;5.00;3.00;;;6.00;83.10;;;;;;5038865;28;20051;-65
2024/01/06 12:47:39;;;;;;;5.00;2.90;;;6.00;83.20;;;;;;5040058;28;20013;-64
2024/01/06 12:50:06;;;;;;;5.13;3.72;;;5.90;83.10;;;;;;5038142;28;20123;-64
2024/01/06 12:52:33;;;;;;;5.78;3.78;;;5.90;83.10;;;;;;5043906;28;20043;-64
2024/01/06 12:54:59;;;;;;;6.57;4.15;;;6.00;83.20;;;;;;5044812;28;20421;-64